createdAt,value
2023-05-19T00:02:26.115Z,15.75
2023-05-19T00:04:53.309Z,15.71
2023-05-19T00:07:26.035Z,15.67
2023-05-19T00:09:53.011Z,15.66
2023-05-19T00:12:19.900Z,15.60
2023-05-19T00:14:46.963Z,15.63
2023-05-19T00:17:14.387Z,15.62
2023-05-19T00:19:41.098Z,15.62
2023-05-19T00:22:07.795Z,15.61
2023-05-19T00:24:34.637Z,15.62
2023-05-19T00:27:01.283Z,15.64
2023-05-19T00:29:29.001Z,15.70
2023-05-19T00:31:56.858Z,15.72
2023-05-19T00:34:23.743Z,15.82
2023-05-19T00:36:50.683Z,15.81
2023-05-19T00:39:17.464Z,15.79
2023-05-19T00:41:44.176Z,15.70
2023-05-19T00:44:11.321Z,15.67
2023-05-19T00:46:38.236Z,15.55
2023-05-19T00:49:05.266Z,15.53
2023-05-19T00:51:32.524Z,15.52
2023-05-19T00:53:59.434Z,15.53
2023-05-19T00:56:26.923Z,15.57
2023-05-19T00:58:54.775Z,15.56
2023-05-19T01:01:22.397Z,15.51
2023-05-19T01:03:49.928Z,15.49
2023-05-19T01:06:19.127Z,15.53
2023-05-19T01:08:46.521Z,15.52
2023-05-19T01:11:13.181Z,15.49
2023-05-19T01:13:42.069Z,15.47
2023-05-19T01:16:19.406Z,15.53
2023-05-19T01:19:22.013Z,15.53
2023-05-19T01:22:32.054Z,15.52
2023-05-19T01:25:47.650Z,15.52
2023-05-19T01:28:37.060Z,15.50
2023-05-19T01:31:08.134Z,15.47
2023-05-19T01:33:35.937Z,15.49
2023-05-19T01:36:05.852Z,15.41
2023-05-19T01:38:34.217Z,15.31
2023-05-19T01:41:03.926Z,15.38
2023-05-19T01:43:31.244Z,15.37
2023-05-19T01:45:59.027Z,15.30
2023-05-19T01:48:27.318Z,15.32
2023-05-19T01:50:57.174Z,15.32
2023-05-19T01:53:24.796Z,15.33
2023-05-19T01:55:57.338Z,15.38
2023-05-19T01:58:45.458Z,15.35
2023-05-19T02:01:29.140Z,15.29
2023-05-19T02:04:18.746Z,15.32
2023-05-19T02:07:05.570Z,15.31
2023-05-19T02:10:04.247Z,15.31
2023-05-19T02:12:36.167Z,15.33
2023-05-19T02:15:16.401Z,15.24
2023-05-19T02:17:53.025Z,15.24
2023-05-19T02:20:24.592Z,15.26
2023-05-19T02:22:52.434Z,15.25
2023-05-19T02:25:22.804Z,15.30
2023-05-19T02:27:53.154Z,15.28
2023-05-19T02:30:20.938Z,15.23
2023-05-19T02:32:49.381Z,15.21
2023-05-19T02:35:19.288Z,15.20
2023-05-19T02:37:47.308Z,15.14
2023-05-19T02:40:17.180Z,15.06
2023-05-19T02:42:46.768Z,15.13
2023-05-19T02:45:17.385Z,15.07
2023-05-19T02:47:51.092Z,15.04
2023-05-19T02:50:20.325Z,15.06
2023-05-19T02:52:50.285Z,15.09
2023-05-19T02:55:17.697Z,15.10
2023-05-19T02:57:44.611Z,15.06
2023-05-19T03:00:12.132Z,15.05
2023-05-19T03:02:43.014Z,15.05
2023-05-19T03:05:15.310Z,15.03
2023-05-19T03:07:44.531Z,15.00
2023-05-19T03:10:11.772Z,14.97
2023-05-19T03:12:38.430Z,14.92
2023-05-19T03:15:05.442Z,14.95
2023-05-19T03:17:34.272Z,15.03
2023-05-19T03:20:01.713Z,15.00
2023-05-19T03:22:28.462Z,14.99
2023-05-19T03:24:55.261Z,15.04
2023-05-19T03:27:22.230Z,15.04
2023-05-19T03:29:49.130Z,15.00
2023-05-19T03:32:15.951Z,14.96
2023-05-19T03:34:42.631Z,14.92
2023-05-19T03:37:10.720Z,14.92
2023-05-19T03:39:38.461Z,14.91
2023-05-19T03:42:05.696Z,14.98
2023-05-19T03:44:32.385Z,14.97
2023-05-19T03:47:00.351Z,14.93
2023-05-19T03:50:02.422Z,14.89
2023-05-19T03:52:53.582Z,14.92
2023-05-19T03:55:29.933Z,14.97
2023-05-19T03:57:57.146Z,14.95
2023-05-19T04:00:23.961Z,14.92
2023-05-19T04:02:51.377Z,14.87
2023-05-19T04:05:18.178Z,14.88
2023-05-19T04:07:46.657Z,14.87
2023-05-19T04:10:13.976Z,14.86
2023-05-19T04:12:40.776Z,14.83
2023-05-19T04:15:08.151Z,14.81
2023-05-19T04:17:35.539Z,14.78
2023-05-19T04:20:02.905Z,14.79
2023-05-19T04:22:29.973Z,14.77
2023-05-19T04:24:56.679Z,14.73
2023-05-19T04:27:24.254Z,14.79
2023-05-19T04:29:50.865Z,14.88
2023-05-19T04:32:17.911Z,14.85
2023-05-19T04:34:47.643Z,14.80
2023-05-19T04:37:22.730Z,14.78
2023-05-19T04:39:50.023Z,14.72
2023-05-19T04:42:21.336Z,14.70
2023-05-19T04:44:52.041Z,14.70
2023-05-19T04:47:21.636Z,14.68
2023-05-19T04:49:49.100Z,14.66
2023-05-19T04:52:16.082Z,14.68
2023-05-19T04:54:43.016Z,14.71
2023-05-19T04:57:12.736Z,14.65
2023-05-19T04:59:40.036Z,14.62
2023-05-19T05:02:08.212Z,14.67
2023-05-19T05:04:37.537Z,14.77
2023-05-19T05:07:04.438Z,14.76
2023-05-19T05:09:31.121Z,14.75
2023-05-19T05:12:00.946Z,14.69
2023-05-19T05:14:28.193Z,14.64
2023-05-19T05:16:56.051Z,14.62
2023-05-19T05:19:24.737Z,14.59
2023-05-19T05:21:52.317Z,14.67
2023-05-19T05:24:19.914Z,14.61
2023-05-19T05:26:51.605Z,14.65
2023-05-19T05:29:18.403Z,14.59
2023-05-19T05:31:45.093Z,14.70
2023-05-19T05:34:11.998Z,14.79
2023-05-19T05:36:38.642Z,14.76
2023-05-19T05:39:05.648Z,14.76
2023-05-19T05:41:35.587Z,14.76
2023-05-19T05:44:08.887Z,14.76
2023-05-19T05:46:36.542Z,14.77
2023-05-19T05:49:03.909Z,14.73
2023-05-19T05:51:32.871Z,14.63
2023-05-19T05:54:00.848Z,14.59
2023-05-19T05:56:36.798Z,14.56
2023-05-19T05:59:05.845Z,14.50
2023-05-19T06:01:34.858Z,14.53
2023-05-19T06:04:04.709Z,14.53
2023-05-19T06:06:32.709Z,14.57
2023-05-19T06:09:01.531Z,14.60
2023-05-19T06:11:29.118Z,14.62
2023-05-19T06:13:58.310Z,14.66
2023-05-19T06:16:50.770Z,14.60
2023-05-19T06:19:19.960Z,14.65
2023-05-19T06:21:46.782Z,14.66
2023-05-19T06:24:14.664Z,14.66
2023-05-19T06:26:41.834Z,14.61
2023-05-19T06:29:08.678Z,14.62
2023-05-19T06:31:35.395Z,14.65
2023-05-19T06:34:12.456Z,14.62
2023-05-19T06:36:41.356Z,14.60
2023-05-19T06:39:08.720Z,14.70
2023-05-19T06:41:36.026Z,14.69
2023-05-19T06:44:04.356Z,14.65
2023-05-19T06:46:33.394Z,14.62
2023-05-19T06:49:00.633Z,14.57
2023-05-19T06:51:31.388Z,14.56
2023-05-19T06:53:59.760Z,14.52
2023-05-19T06:56:27.344Z,14.51
2023-05-19T06:58:54.176Z,14.51
2023-05-19T07:01:26.671Z,14.45
2023-05-19T07:04:00.503Z,14.55
2023-05-19T07:06:27.783Z,14.58
2023-05-19T07:08:54.562Z,14.51
2023-05-19T07:11:21.913Z,14.48
2023-05-19T07:13:48.997Z,14.49
2023-05-19T07:16:22.545Z,14.51
2023-05-19T07:18:49.378Z,14.47
2023-05-19T07:21:16.414Z,14.43
2023-05-19T07:23:43.226Z,14.43
2023-05-19T07:26:11.679Z,14.43
2023-05-19T07:28:41.319Z,14.43
2023-05-19T07:31:08.489Z,14.44
2023-05-19T07:33:35.186Z,14.49
2023-05-19T07:36:01.984Z,14.45
2023-05-19T07:38:30.305Z,14.46
2023-05-19T07:40:57.062Z,14.45
2023-05-19T07:43:24.011Z,14.43
2023-05-19T07:45:51.183Z,14.39
2023-05-19T07:48:18.804Z,14.42
2023-05-19T07:50:45.610Z,14.45
2023-05-19T07:53:12.341Z,14.45
2023-05-19T07:55:39.100Z,14.53
2023-05-19T07:58:06.596Z,14.37
2023-05-19T08:00:34.015Z,14.42
2023-05-19T08:03:01.807Z,14.33
2023-05-19T08:05:29.808Z,14.23
2023-05-19T08:07:57.477Z,14.29
2023-05-19T08:10:24.243Z,14.33
2023-05-19T08:12:50.908Z,14.31
2023-05-19T08:15:19.793Z,14.31
2023-05-19T08:17:46.593Z,14.27
2023-05-19T08:20:14.131Z,14.26
2023-05-19T08:22:40.988Z,14.29
2023-05-19T08:25:07.919Z,14.31
2023-05-19T08:27:34.572Z,14.31
2023-05-19T08:30:01.487Z,14.28
2023-05-19T08:32:28.178Z,14.33
2023-05-19T08:34:54.888Z,14.30
2023-05-19T08:37:21.660Z,14.31
2023-05-19T08:39:48.391Z,14.25
2023-05-19T08:42:15.166Z,14.27
2023-05-19T08:44:44.054Z,14.29
2023-05-19T08:47:13.992Z,14.36
2023-05-19T08:49:45.803Z,14.27
2023-05-19T08:52:58.250Z,14.30
2023-05-19T08:55:47.148Z,14.26
2023-05-19T08:58:16.351Z,14.27
2023-05-19T09:00:44.248Z,14.29
2023-05-19T09:05:44.080Z,14.31
2023-05-19T09:08:11.196Z,14.37
2023-05-19T09:10:37.921Z,14.40
2023-05-19T09:13:05.785Z,14.34
2023-05-19T09:15:34.077Z,14.31
2023-05-19T09:18:19.272Z,14.33
2023-05-19T09:20:47.177Z,14.39
2023-05-19T09:23:15.884Z,14.50
2023-05-19T09:25:50.398Z,14.53
2023-05-19T09:28:38.105Z,14.41
2023-05-19T09:31:06.280Z,14.49
2023-05-19T09:33:37.081Z,14.46
2023-05-19T09:36:08.514Z,14.49
2023-05-19T09:38:36.901Z,14.46
2023-05-19T09:41:05.689Z,14.51
2023-05-19T09:43:34.463Z,14.58
2023-05-19T09:46:07.880Z,14.66
2023-05-19T09:48:36.479Z,14.67
2023-05-19T09:51:08.075Z,14.65
2023-05-19T09:53:35.327Z,14.65
2023-05-19T09:56:03.573Z,14.68
2023-05-19T09:58:37.112Z,14.64
2023-05-19T10:01:05.107Z,14.67
2023-05-19T10:03:35.344Z,14.68
2023-05-19T10:06:04.906Z,14.70
2023-05-19T10:08:33.508Z,14.68
2023-05-19T10:11:00.725Z,14.71
2023-05-19T10:13:29.641Z,14.70
2023-05-19T10:15:59.771Z,14.76
2023-05-19T10:18:30.398Z,14.86
2023-05-19T10:20:57.991Z,14.87
2023-05-19T10:23:25.600Z,14.90
2023-05-19T10:25:56.648Z,14.90
2023-05-19T10:28:28.060Z,14.95
2023-05-19T10:30:58.806Z,14.70
2023-05-19T10:33:45.053Z,14.60
2023-05-19T10:36:14.829Z,14.75
2023-05-19T10:38:58.831Z,14.83
2023-05-19T10:41:53.719Z,14.88
2023-05-19T10:44:40.922Z,14.86
2023-05-19T10:47:08.658Z,14.93
2023-05-19T10:49:36.686Z,14.84
2023-05-19T10:52:04.316Z,14.91
2023-05-19T10:54:40.863Z,14.90
2023-05-19T10:57:08.385Z,14.91
2023-05-19T10:59:37.763Z,14.98
2023-05-19T11:02:08.797Z,15.00
2023-05-19T11:04:52.472Z,14.95
2023-05-19T11:07:21.705Z,15.03
2023-05-19T11:09:52.654Z,15.05
2023-05-19T11:12:24.802Z,15.12
2023-05-19T11:14:55.451Z,15.13
2023-05-19T11:17:25.150Z,15.18
2023-05-19T11:19:56.483Z,15.27
2023-05-19T11:22:26.190Z,15.22
2023-05-19T11:24:55.241Z,15.22
2023-05-19T11:27:32.538Z,15.28
2023-05-19T11:30:05.487Z,15.40
2023-05-19T11:32:34.725Z,15.39
2023-05-19T11:35:02.414Z,15.35
2023-05-19T11:37:32.662Z,15.36
2023-05-19T11:40:02.165Z,15.33
2023-05-19T11:42:28.823Z,15.28
2023-05-19T11:44:56.508Z,15.23
2023-05-19T11:47:23.386Z,15.19
2023-05-19T11:49:54.798Z,15.13
2023-05-19T11:52:23.154Z,15.11
2023-05-19T11:54:50.754Z,15.06
2023-05-19T11:57:17.639Z,15.08
2023-05-19T11:59:45.827Z,15.05
2023-05-19T12:02:14.068Z,15.09
2023-05-19T12:04:41.196Z,15.09
2023-05-19T12:07:08.338Z,15.07
2023-05-19T12:09:35.792Z,15.19
2023-05-19T12:12:03.112Z,15.17
2023-05-19T12:14:31.180Z,15.18
2023-05-19T12:16:58.220Z,15.14
2023-05-19T12:19:25.840Z,15.11
2023-05-19T12:21:53.960Z,14.94
2023-05-19T12:24:21.791Z,14.99
2023-05-19T12:26:50.583Z,15.02
2023-05-19T12:29:17.378Z,14.96
2023-05-19T12:31:47.119Z,14.94
2023-05-19T12:34:13.922Z,14.91
2023-05-19T12:36:41.597Z,14.91
2023-05-19T12:39:09.523Z,14.91
2023-05-19T12:41:44.857Z,14.91
2023-05-19T12:44:17.696Z,14.92
2023-05-19T12:46:44.469Z,14.95
2023-05-19T12:49:11.146Z,15.04
2023-05-19T12:51:38.074Z,15.02
2023-05-19T12:54:05.062Z,15.05
2023-05-19T12:56:31.862Z,15.03
2023-05-19T12:59:01.711Z,15.00
2023-05-19T13:01:29.533Z,14.94
2023-05-19T13:03:56.438Z,14.99
2023-05-19T13:06:23.544Z,15.01
2023-05-19T13:08:50.211Z,14.98
2023-05-19T13:11:16.898Z,15.04
2023-05-19T13:13:43.667Z,15.11
2023-05-19T13:16:10.642Z,15.12
2023-05-19T13:18:38.451Z,15.12
2023-05-19T13:21:05.803Z,15.09
2023-05-19T13:23:32.578Z,15.07
2023-05-19T13:25:59.410Z,15.05
2023-05-19T13:28:26.411Z,15.11
2023-05-19T13:30:53.266Z,15.10
2023-05-19T13:33:20.066Z,15.16
2023-05-19T13:35:46.800Z,15.09
2023-05-19T13:38:15.627Z,15.09
2023-05-19T13:40:44.423Z,15.07
2023-05-19T13:43:11.205Z,15.09
2023-05-19T13:45:38.022Z,15.04
2023-05-19T13:48:07.695Z,15.19
2023-05-19T13:50:34.962Z,15.23
2023-05-19T13:53:01.670Z,15.20
2023-05-19T13:55:29.025Z,15.15
2023-05-19T13:57:55.766Z,15.07
2023-05-19T14:00:23.064Z,15.13
2023-05-19T14:02:49.933Z,15.18
2023-05-19T14:05:17.125Z,15.16
2023-05-19T14:07:44.993Z,15.21
2023-05-19T14:10:11.953Z,15.12
2023-05-19T14:12:52.787Z,15.12
2023-05-19T14:15:26.572Z,15.16
2023-05-19T14:17:53.697Z,15.12
2023-05-19T14:20:20.527Z,15.17
2023-05-19T14:22:47.268Z,15.18
2023-05-19T14:25:14.266Z,15.17
2023-05-19T14:27:41.335Z,15.10
2023-05-19T14:30:08.797Z,15.03
2023-05-19T14:32:36.007Z,15.07
2023-05-19T14:35:02.845Z,15.06
2023-05-19T14:37:31.727Z,15.04
2023-05-19T14:39:58.902Z,14.98
2023-05-19T14:42:25.969Z,15.01
2023-05-19T14:44:52.798Z,14.97
2023-05-19T14:47:19.463Z,14.93
2023-05-19T14:49:46.263Z,14.94
2023-05-19T14:52:13.082Z,14.90
2023-05-19T14:54:39.803Z,14.88
2023-05-19T14:57:08.392Z,14.82
2023-05-19T14:59:39.076Z,14.78
2023-05-19T15:02:06.444Z,14.77
2023-05-19T15:04:33.166Z,14.72
2023-05-19T15:09:29.590Z,14.67
2023-05-19T15:11:56.311Z,14.65
2023-05-19T15:14:23.866Z,14.56
2023-05-19T15:16:50.659Z,14.52
2023-05-19T15:19:17.368Z,14.49
2023-05-19T15:21:45.657Z,14.45
2023-05-19T15:24:12.463Z,14.43
2023-05-19T15:26:39.403Z,14.45
2023-05-19T15:29:06.170Z,14.44
2023-05-19T15:31:35.038Z,14.45
2023-05-19T15:34:03.341Z,14.46
2023-05-19T15:36:30.050Z,14.51
2023-05-19T15:38:56.910Z,14.56
2023-05-19T15:41:23.638Z,14.59
2023-05-19T15:43:50.431Z,14.61
2023-05-19T15:46:19.637Z,14.65
2023-05-19T15:48:46.384Z,14.60
2023-05-19T15:51:13.133Z,14.63
2023-05-19T15:53:39.944Z,14.66
2023-05-19T15:56:06.723Z,14.61
2023-05-19T15:58:33.534Z,14.63
2023-05-19T16:01:00.645Z,14.63
2023-05-19T16:03:27.599Z,14.71
2023-05-19T16:05:54.419Z,14.68
2023-05-19T16:08:22.177Z,14.70
2023-05-19T16:10:49.242Z,14.68
2023-05-19T16:13:16.085Z,14.69
2023-05-19T16:15:42.774Z,14.66
2023-05-19T16:18:09.639Z,14.65
2023-05-19T16:20:36.361Z,14.63
2023-05-19T16:23:03.329Z,14.63
2023-05-19T16:25:30.491Z,14.62
2023-05-19T16:27:57.516Z,14.61
2023-05-19T16:30:26.309Z,14.61
2023-05-19T16:32:54.383Z,14.62
2023-05-19T16:35:21.868Z,14.63
2023-05-19T16:37:49.247Z,14.65
2023-05-19T16:40:15.980Z,14.60
2023-05-19T16:42:42.742Z,14.59
2023-05-19T16:45:09.991Z,14.59
2023-05-19T16:47:36.872Z,14.55
2023-05-19T16:50:04.024Z,14.52
2023-05-19T16:52:30.777Z,14.55
2023-05-19T16:54:57.475Z,14.56
2023-05-19T16:57:24.774Z,14.59
2023-05-19T16:59:52.012Z,14.48
2023-05-19T17:02:18.835Z,14.48
2023-05-19T17:04:45.764Z,14.48
2023-05-19T17:07:16.704Z,14.50
2023-05-19T17:09:43.975Z,14.46
2023-05-19T17:12:10.961Z,14.47
2023-05-19T17:14:37.869Z,14.49
2023-05-19T17:17:04.869Z,14.53
2023-05-19T17:19:31.836Z,14.53
2023-05-19T17:21:58.629Z,14.53
2023-05-19T17:24:25.731Z,14.52
2023-05-19T17:26:52.433Z,14.50
2023-05-19T17:29:19.257Z,14.49
2023-05-19T17:31:45.979Z,14.39
2023-05-19T17:34:12.801Z,14.44
2023-05-19T17:36:39.420Z,14.45
2023-05-19T17:39:06.243Z,14.45
2023-05-19T17:41:33.153Z,14.45
2023-05-19T17:44:00.114Z,14.50
2023-05-19T17:46:26.822Z,14.44
2023-05-19T17:48:53.629Z,14.48
2023-05-19T17:51:21.192Z,14.55
2023-05-19T17:53:48.340Z,14.53
2023-05-19T17:56:15.240Z,14.48
2023-05-19T17:58:42.516Z,14.45
2023-05-19T18:01:09.490Z,14.44
2023-05-19T18:03:36.840Z,14.45
2023-05-19T18:06:03.874Z,14.45
2023-05-19T18:08:31.669Z,14.47
2023-05-19T18:10:58.724Z,14.47
2023-05-19T18:13:26.506Z,14.52
2023-05-19T18:15:53.285Z,14.49
2023-05-19T18:18:19.991Z,14.45
2023-05-19T18:20:46.735Z,14.46
2023-05-19T18:23:13.533Z,14.52
2023-05-19T18:25:40.304Z,14.50
2023-05-19T18:28:07.639Z,14.46
2023-05-19T18:30:34.494Z,14.43
2023-05-19T18:33:03.740Z,14.40
2023-05-19T18:35:30.789Z,14.40
2023-05-19T18:37:57.548Z,14.38
2023-05-19T18:40:24.509Z,14.37
2023-05-19T18:42:51.284Z,14.38
2023-05-19T18:45:18.164Z,14.37
2023-05-19T18:47:45.102Z,14.38
2023-05-19T18:50:11.913Z,14.37
2023-05-19T18:52:38.650Z,14.37
2023-05-19T18:55:07.084Z,14.47
2023-05-19T18:57:33.866Z,14.44
2023-05-19T19:00:00.465Z,14.49
2023-05-19T19:02:27.168Z,14.42
2023-05-19T19:04:53.951Z,14.36
2023-05-19T19:07:20.851Z,14.40
2023-05-19T19:09:47.461Z,14.46
2023-05-19T19:12:14.568Z,14.45
2023-05-19T19:14:41.732Z,14.45
2023-05-19T19:17:08.503Z,14.43
2023-05-19T19:19:35.388Z,14.53
2023-05-19T19:22:02.221Z,14.43
2023-05-19T19:24:30.793Z,14.35
2023-05-19T19:26:57.696Z,14.28
2023-05-19T19:29:24.405Z,14.27
2023-05-19T19:31:51.302Z,14.27
2023-05-19T19:34:19.860Z,14.26
2023-05-19T19:36:47.805Z,14.19
2023-05-19T19:39:14.686Z,14.21
2023-05-19T19:41:41.545Z,14.20
2023-05-19T19:44:08.206Z,14.22
2023-05-19T19:46:35.318Z,14.27
2023-05-19T19:49:02.150Z,14.26
2023-05-19T19:51:28.890Z,14.28
2023-05-19T19:53:55.606Z,14.25
2023-05-19T19:56:24.671Z,14.21
2023-05-19T19:58:51.720Z,14.19
2023-05-19T20:01:23.465Z,14.18
2023-05-19T20:03:50.636Z,14.20
2023-05-19T20:06:21.133Z,14.16
2023-05-19T20:08:49.035Z,14.16
2023-05-19T20:11:16.482Z,14.13
2023-05-19T20:13:43.666Z,14.14
2023-05-19T20:16:10.642Z,14.14
2023-05-19T20:18:37.626Z,14.14
2023-05-19T20:21:04.393Z,14.07
2023-05-19T20:23:31.297Z,14.15
2023-05-19T20:26:11.072Z,14.20
2023-05-19T20:28:39.849Z,14.26
2023-05-19T20:31:07.179Z,14.25
2023-05-19T20:33:34.438Z,14.21
2023-05-19T20:36:01.676Z,14.14
2023-05-19T20:38:28.637Z,14.10
2023-05-19T20:40:55.780Z,14.09
2023-05-19T20:43:22.681Z,14.12
2023-05-19T20:45:51.368Z,14.16
2023-05-19T20:48:20.458Z,14.15
2023-05-19T20:50:50.644Z,14.18
2023-05-19T20:53:20.459Z,14.16
2023-05-19T20:55:48.275Z,14.20
2023-05-19T20:58:15.466Z,14.17
2023-05-19T21:00:42.161Z,14.18
2023-05-19T21:03:09.099Z,14.12
2023-05-19T21:05:36.336Z,14.06
2023-05-19T21:08:03.252Z,14.04
2023-05-19T21:10:30.175Z,13.95
2023-05-19T21:12:58.855Z,13.95
2023-05-19T21:15:27.057Z,14.03
2023-05-19T21:17:53.896Z,13.99
2023-05-19T21:20:20.884Z,14.02
2023-05-19T21:22:47.678Z,14.01
2023-05-19T21:25:14.501Z,13.91
2023-05-19T21:27:41.407Z,13.91
2023-05-19T21:30:09.820Z,13.87
2023-05-19T21:32:36.665Z,13.87
2023-05-19T21:35:04.059Z,13.94
2023-05-19T21:37:30.975Z,13.95
2023-05-19T21:39:57.825Z,13.97
2023-05-19T21:42:24.581Z,14.00
2023-05-19T21:44:51.351Z,13.90
2023-05-19T21:47:18.162Z,13.75
2023-05-19T21:49:44.920Z,13.76
2023-05-19T21:52:11.625Z,13.74
2023-05-19T21:54:38.250Z,13.66
2023-05-19T21:57:05.609Z,13.62
2023-05-19T21:59:32.256Z,13.63
2023-05-19T22:01:59.282Z,13.68
2023-05-19T22:04:26.624Z,13.66
2023-05-19T22:06:53.422Z,13.69
2023-05-19T22:09:20.037Z,13.60
2023-05-19T22:11:46.751Z,13.49
2023-05-19T22:14:13.925Z,13.37
2023-05-19T22:16:41.083Z,13.35
2023-05-19T22:19:09.054Z,13.36
2023-05-19T22:21:36.510Z,13.28
2023-05-19T22:24:03.412Z,13.22
2023-05-19T22:26:30.502Z,13.12
2023-05-19T22:28:57.313Z,12.99
2023-05-19T22:31:24.113Z,13.04
2023-05-19T22:33:50.885Z,13.11
2023-05-19T22:36:17.818Z,13.19
2023-05-19T22:38:44.530Z,13.22
2023-05-19T22:41:11.260Z,13.30
2023-05-19T22:43:37.965Z,13.33
2023-05-19T22:46:05.095Z,13.39
2023-05-19T22:48:31.814Z,13.47
2023-05-19T22:50:58.731Z,13.49
2023-05-19T22:53:25.416Z,13.47
2023-05-19T22:55:52.125Z,13.48
2023-05-19T22:58:19.056Z,13.51
2023-05-19T23:00:45.974Z,13.49
2023-05-19T23:03:12.713Z,13.47
2023-05-19T23:05:40.273Z,13.53
2023-05-19T23:08:06.965Z,13.57
2023-05-19T23:10:33.852Z,13.58
2023-05-19T23:13:00.982Z,13.61
2023-05-19T23:15:27.716Z,13.60
2023-05-19T23:17:54.516Z,13.52
2023-05-19T23:20:21.350Z,13.46
2023-05-19T23:22:48.005Z,13.37
2023-05-19T23:25:14.794Z,13.36
2023-05-19T23:27:41.432Z,13.38
2023-05-19T23:30:08.694Z,13.39
2023-05-19T23:32:35.431Z,13.34
2023-05-19T23:35:16.803Z,13.32
2023-05-19T23:37:43.648Z,13.27
2023-05-19T23:40:10.576Z,13.30
2023-05-19T23:42:37.442Z,13.32
2023-05-19T23:45:04.592Z,13.38
2023-05-19T23:47:31.430Z,13.45
2023-05-19T23:49:58.265Z,13.48
2023-05-19T23:52:24.972Z,13.46
2023-05-19T23:54:51.644Z,13.44
2023-05-19T23:57:18.388Z,13.38
2023-05-19T23:59:45.098Z,13.44
